createdAt,value
2023-04-11T00:01:32.488Z,6.28
2023-04-11T00:03:39.106Z,5.72
2023-04-11T00:05:42.809Z,5.65
2023-04-11T00:07:46.149Z,9.25
2023-04-11T00:09:49.499Z,5.32
2023-04-11T00:11:52.822Z,5.20
2023-04-11T00:13:57.765Z,6.63
2023-04-11T00:16:02.338Z,6.32
2023-04-11T00:18:06.538Z,6.32
2023-04-11T00:20:13.122Z,4.90
2023-04-11T00:22:18.001Z,6.30
2023-04-11T00:24:21.354Z,4.50
2023-04-11T00:26:24.704Z,7.15
2023-04-11T00:28:28.068Z,7.15
2023-04-11T00:30:31.593Z,4.00
2023-04-11T00:32:35.678Z,5.88
2023-04-11T00:34:39.537Z,6.90
2023-04-11T00:36:44.602Z,7.53
2023-04-11T00:38:47.954Z,5.65
2023-04-11T00:40:51.252Z,4.45
2023-04-11T00:42:57.053Z,5.60
2023-04-11T00:45:00.482Z,4.13
2023-04-11T00:47:06.527Z,4.32
2023-04-11T00:49:10.087Z,6.03
2023-04-11T00:51:13.451Z,5.63
2023-04-11T00:53:18.859Z,5.70
2023-04-11T00:55:23.051Z,5.53
2023-04-11T00:57:26.946Z,4.32
2023-04-11T00:59:31.364Z,5.03
2023-04-11T01:01:36.414Z,4.95
2023-04-11T01:03:41.361Z,4.65
2023-04-11T01:05:45.545Z,4.53
2023-04-11T01:07:51.669Z,6.93
2023-04-11T01:09:56.683Z,4.50
2023-04-11T01:12:03.075Z,6.95
2023-04-11T01:14:06.838Z,6.43
2023-04-11T01:16:11.262Z,5.10
2023-04-11T01:18:15.611Z,4.68
2023-04-11T01:20:19.136Z,3.88
2023-04-11T01:22:24.314Z,6.10
2023-04-11T01:24:29.686Z,6.05
2023-04-11T01:26:32.999Z,5.45
2023-04-11T01:28:36.384Z,5.05
2023-04-11T01:30:41.416Z,4.38
2023-04-11T01:32:44.841Z,5.25
2023-04-11T01:34:50.809Z,6.72
2023-04-11T01:36:54.209Z,5.65
2023-04-11T01:38:57.779Z,6.13
2023-04-11T01:41:03.849Z,4.95
2023-04-11T01:43:08.615Z,4.70
2023-04-11T01:45:14.259Z,5.13
2023-04-11T01:47:17.824Z,6.45
2023-04-11T01:49:21.670Z,8.25
2023-04-11T01:51:25.105Z,4.45
2023-04-11T01:53:29.092Z,4.47
2023-04-11T01:55:32.609Z,5.85
2023-04-11T01:57:37.505Z,5.75
2023-04-11T01:59:40.945Z,4.53
2023-04-11T02:01:44.870Z,4.55
2023-04-11T02:03:48.344Z,4.60
2023-04-11T02:05:51.832Z,5.03
2023-04-11T02:07:55.220Z,5.40
2023-04-11T02:09:58.634Z,7.63
2023-04-11T02:12:02.840Z,2.75
2023-04-11T02:14:09.844Z,5.32
2023-04-11T02:16:15.173Z,4.95
2023-04-11T02:18:18.906Z,4.82
2023-04-11T02:20:23.339Z,4.43
2023-04-11T02:22:26.735Z,8.98
2023-04-11T02:24:30.271Z,5.47
2023-04-11T02:26:33.627Z,4.63
2023-04-11T02:28:37.678Z,5.35
2023-04-11T02:30:42.500Z,4.60
2023-04-11T02:32:46.687Z,5.70
2023-04-11T02:34:50.742Z,6.03
2023-04-11T02:36:54.589Z,4.55
2023-04-11T02:38:57.982Z,5.60
2023-04-11T02:41:04.038Z,5.30
2023-04-11T02:43:07.395Z,6.07
2023-04-11T02:45:11.876Z,5.13
2023-04-11T02:47:16.755Z,6.15
2023-04-11T02:49:20.197Z,4.07
2023-04-11T02:51:24.530Z,7.03
2023-04-11T02:53:28.101Z,6.15
2023-04-11T02:55:31.443Z,4.75
2023-04-11T02:57:34.860Z,5.88
2023-04-11T02:59:38.435Z,5.95
2023-04-11T03:01:41.868Z,6.40
2023-04-11T03:03:46.764Z,4.05
2023-04-11T03:05:50.625Z,1.92
2023-04-11T03:07:59.053Z,3.25
2023-04-11T03:10:05.670Z,2.80
2023-04-11T03:12:09.909Z,2.25
2023-04-11T03:14:23.093Z,2.70
2023-04-11T03:16:28.293Z,2.03
2023-04-11T03:18:31.803Z,2.85
2023-04-11T03:20:39.807Z,4.22
2023-04-11T03:22:45.524Z,2.75
2023-04-11T03:24:49.843Z,2.60
2023-04-11T03:26:56.141Z,3.50
2023-04-11T03:28:59.877Z,3.35
2023-04-11T03:31:08.847Z,2.75
2023-04-11T03:33:12.247Z,2.92
2023-04-11T03:35:18.764Z,2.38
2023-04-11T03:37:25.214Z,1.80
2023-04-11T03:39:28.584Z,1.48
2023-04-11T03:41:35.002Z,2.05
2023-04-11T03:43:38.554Z,3.63
2023-04-11T03:45:42.683Z,3.25
2023-04-11T03:48:07.307Z,2.42
2023-04-11T03:50:23.465Z,4.38
2023-04-11T03:52:34.485Z,2.80
2023-04-11T03:54:38.393Z,5.30
2023-04-11T03:56:44.916Z,2.13
2023-04-11T03:58:55.357Z,3.33
2023-04-11T04:01:03.594Z,4.78
2023-04-11T04:03:08.360Z,1.75
2023-04-11T04:05:13.777Z,2.33
2023-04-11T04:07:22.223Z,2.42
2023-04-11T04:09:29.370Z,2.17
2023-04-11T04:11:33.206Z,2.47
2023-04-11T04:13:36.662Z,1.52
2023-04-11T04:15:52.642Z,2.65
2023-04-11T04:18:00.839Z,1.80
2023-04-11T04:20:33.350Z,3.17
2023-04-11T04:22:37.008Z,2.15
2023-04-11T04:24:46.219Z,2.55
2023-04-11T04:26:57.980Z,1.65
2023-04-11T04:29:21.685Z,1.70
2023-04-11T04:31:29.955Z,1.98
2023-04-11T04:33:42.917Z,3.05
2023-04-11T04:35:58.215Z,2.30
2023-04-11T04:38:06.508Z,3.08
2023-04-11T04:40:32.024Z,4.10
2023-04-11T04:42:43.243Z,3.53
2023-04-11T04:44:47.277Z,2.70
2023-04-11T04:46:55.283Z,2.72
2023-04-11T04:49:02.317Z,4.15
2023-04-11T04:51:06.804Z,4.22
2023-04-11T04:53:12.491Z,4.57
2023-04-11T04:55:22.009Z,4.40
2023-04-11T04:57:28.993Z,2.30
2023-04-11T04:59:32.639Z,4.90
2023-04-11T05:01:44.689Z,4.03
2023-04-11T05:03:59.046Z,4.25
2023-04-11T05:06:15.958Z,5.10
2023-04-11T05:08:22.724Z,3.20
2023-04-11T05:10:26.246Z,2.05
2023-04-11T05:12:31.952Z,3.55
2023-04-11T05:14:40.831Z,4.57
2023-04-11T05:16:44.565Z,3.65
2023-04-11T05:18:48.026Z,5.95
2023-04-11T05:20:51.529Z,3.70
2023-04-11T05:22:58.623Z,5.03
2023-04-11T05:25:02.508Z,4.40
2023-04-11T05:27:05.928Z,3.58
2023-04-11T05:29:12.182Z,4.78
2023-04-11T05:31:17.011Z,6.45
2023-04-11T05:33:21.841Z,6.32
2023-04-11T05:35:25.331Z,3.38
2023-04-11T05:37:31.333Z,4.75
2023-04-11T05:39:34.736Z,6.00
2023-04-11T05:41:38.182Z,5.20
2023-04-11T05:43:41.538Z,10.32
2023-04-11T05:45:48.208Z,5.43
2023-04-11T05:47:52.948Z,5.25
2023-04-11T05:49:57.082Z,2.85
2023-04-11T05:52:00.482Z,4.35
2023-04-11T05:54:03.923Z,4.35
2023-04-11T05:56:08.098Z,6.32
2023-04-11T05:58:12.169Z,5.55
2023-04-11T06:00:17.309Z,6.13
2023-04-11T06:02:22.274Z,4.53
2023-04-11T06:04:26.034Z,5.47
2023-04-11T06:06:29.939Z,8.48
2023-04-11T06:08:34.482Z,4.82
2023-04-11T06:10:37.857Z,5.40
2023-04-11T06:12:41.209Z,6.18
2023-04-11T06:14:44.599Z,6.47
2023-04-11T06:16:48.025Z,6.25
2023-04-11T06:18:52.879Z,4.32
2023-04-11T06:20:56.273Z,6.10
2023-04-11T06:23:01.489Z,5.88
2023-04-11T06:25:05.423Z,8.50
2023-04-11T06:27:10.486Z,7.70
2023-04-11T06:29:13.899Z,5.50
2023-04-11T06:31:17.272Z,8.00
2023-04-11T06:33:21.279Z,7.90
2023-04-11T06:35:26.318Z,7.60
2023-04-11T06:37:29.732Z,8.38
2023-04-11T06:39:33.326Z,5.70
2023-04-11T06:41:36.746Z,7.47
2023-04-11T06:43:40.113Z,9.63
2023-04-11T06:45:43.450Z,7.45
2023-04-11T06:47:47.047Z,4.57
2023-04-11T06:49:50.444Z,6.57
2023-04-11T06:51:56.012Z,8.23
2023-04-11T06:53:59.408Z,8.48
2023-04-11T06:56:02.791Z,7.28
2023-04-11T06:58:06.210Z,9.65
2023-04-11T07:00:13.105Z,9.02
2023-04-11T07:02:16.870Z,6.00
2023-04-11T07:04:20.421Z,5.68
2023-04-11T07:06:23.889Z,5.68
2023-04-11T07:08:28.846Z,5.18
2023-04-11T07:10:32.209Z,6.28
2023-04-11T07:12:35.633Z,2.72
2023-04-11T07:14:39.036Z,3.92
2023-04-11T07:16:42.438Z,3.47
2023-04-11T07:18:45.925Z,2.15
2023-04-11T07:20:52.565Z,3.55
2023-04-11T07:22:56.792Z,3.25
2023-04-11T07:25:01.576Z,3.80
2023-04-11T07:27:06.833Z,5.45
2023-04-11T07:29:12.288Z,2.05
2023-04-11T07:31:19.760Z,6.07
2023-04-11T07:33:23.178Z,3.25
2023-04-11T07:35:26.546Z,3.20
2023-04-11T07:37:30.330Z,2.55
2023-04-11T07:39:34.382Z,1.92
2023-04-11T07:41:39.136Z,3.03
2023-04-11T07:43:42.604Z,2.05
2023-04-11T07:45:46.068Z,2.50
2023-04-11T07:47:49.970Z,2.78
2023-04-11T07:49:53.479Z,2.45
2023-04-11T07:51:56.824Z,3.78
2023-04-11T07:54:00.232Z,2.97
2023-04-11T07:56:05.056Z,2.70
2023-04-11T07:58:09.941Z,3.10
2023-04-11T08:00:21.271Z,3.72
2023-04-11T08:02:24.833Z,2.22
2023-04-11T08:04:32.033Z,3.28
2023-04-11T08:06:35.796Z,2.13
2023-04-11T08:08:39.207Z,2.42
2023-04-11T08:10:42.602Z,1.83
2023-04-11T08:12:46.026Z,3.15
2023-04-11T08:14:50.872Z,1.85
2023-04-11T08:16:54.808Z,2.17
2023-04-11T08:18:59.217Z,2.22
2023-04-11T08:21:02.828Z,2.58
2023-04-11T08:23:07.981Z,3.30
2023-04-11T08:25:12.833Z,2.40
2023-04-11T08:27:16.631Z,2.90
2023-04-11T08:29:20.004Z,4.53
2023-04-11T08:31:24.819Z,3.42
2023-04-11T08:33:28.307Z,2.90
2023-04-11T08:35:31.798Z,5.68
2023-04-11T08:37:35.326Z,4.50
2023-04-11T08:39:38.753Z,3.38
2023-04-11T08:41:42.815Z,4.32
2023-04-11T08:43:47.070Z,3.03
2023-04-11T08:45:51.201Z,3.03
2023-04-11T08:47:56.110Z,6.40
2023-04-11T08:49:59.578Z,6.03
2023-04-11T08:52:04.183Z,7.20
2023-04-11T08:54:09.563Z,7.00
2023-04-11T08:56:17.371Z,7.13
2023-04-11T08:58:21.214Z,8.43
2023-04-11T09:00:25.265Z,5.57
2023-04-11T09:02:28.844Z,7.50
2023-04-11T09:04:41.558Z,5.90
2023-04-11T09:07:00.512Z,4.18
2023-04-11T09:09:06.621Z,4.88
2023-04-11T09:11:10.050Z,9.30
2023-04-11T09:13:21.521Z,5.45
2023-04-11T09:17:42.261Z,9.15
2023-04-11T09:19:49.118Z,6.18
2023-04-11T09:21:56.788Z,5.68
2023-04-11T09:24:16.458Z,8.52
2023-04-11T09:26:27.699Z,7.57
2023-04-11T09:28:41.696Z,9.75
2023-04-11T09:30:51.447Z,8.98
2023-04-11T09:32:55.675Z,8.40
2023-04-11T09:35:15.796Z,7.88
2023-04-11T09:37:19.221Z,12.43
2023-04-11T09:39:22.771Z,6.22
2023-04-11T09:41:33.302Z,9.38
2023-04-11T09:43:52.626Z,7.80
2023-04-11T09:46:10.140Z,9.20
2023-04-11T09:48:14.162Z,12.57
2023-04-11T09:50:20.134Z,9.50
2023-04-11T09:52:23.554Z,7.70
2023-04-11T09:54:28.356Z,4.43
2023-04-11T09:56:34.314Z,7.20
2023-04-11T09:58:39.563Z,3.78
2023-04-11T10:00:42.974Z,6.32
2023-04-11T10:02:49.014Z,5.70
2023-04-11T10:04:53.511Z,3.25
2023-04-11T10:07:10.580Z,3.20
2023-04-11T10:09:16.878Z,4.20
2023-04-11T10:11:23.557Z,5.68
2023-04-11T10:13:39.417Z,4.45
2023-04-11T10:16:09.614Z,5.25
2023-04-11T10:18:13.918Z,3.28
2023-04-11T10:20:44.023Z,3.08
2023-04-11T10:23:01.890Z,3.70
2023-04-11T10:25:20.654Z,1.98
2023-04-11T10:27:48.205Z,3.10
2023-04-11T10:29:53.214Z,4.25
2023-04-11T10:32:10.014Z,1.45
2023-04-11T10:34:14.620Z,3.40
2023-04-11T10:36:18.823Z,4.30
2023-04-11T10:38:47.440Z,2.50
2023-04-11T10:41:15.733Z,14.65
2023-04-11T10:43:22.306Z,2.42
2023-04-11T10:45:27.314Z,5.47
2023-04-11T10:47:30.823Z,3.35
2023-04-11T10:49:36.480Z,1.65
2023-04-11T10:51:39.893Z,3.17
2023-04-11T10:53:43.316Z,1.75
2023-04-11T10:55:50.000Z,3.28
2023-04-11T10:58:06.746Z,1.98
2023-04-11T11:00:15.884Z,1.10
2023-04-11T11:02:21.931Z,1.10
2023-04-11T11:04:32.982Z,1.23
2023-04-11T11:06:46.823Z,1.43
2023-04-11T11:08:54.586Z,3.05
2023-04-11T11:11:03.544Z,1.02
2023-04-11T11:13:06.968Z,1.17
2023-04-11T11:15:14.528Z,1.20
2023-04-11T11:17:18.691Z,0.65
2023-04-11T11:19:22.273Z,1.50
2023-04-11T11:21:28.853Z,1.10
2023-04-11T11:23:33.079Z,4.13
2023-04-11T11:25:37.571Z,2.63
2023-04-11T11:27:42.400Z,2.45
2023-04-11T11:29:46.339Z,1.05
2023-04-11T11:31:50.897Z,2.47
2023-04-11T11:33:55.821Z,1.15
2023-04-11T11:36:06.711Z,1.90
2023-04-11T11:38:10.184Z,1.55
2023-04-11T11:40:13.907Z,4.28
2023-04-11T11:42:17.637Z,1.77
2023-04-11T11:44:27.578Z,3.25
2023-04-11T11:46:33.799Z,4.25
2023-04-11T11:48:37.546Z,2.45
2023-04-11T11:50:41.100Z,4.65
2023-04-11T11:52:44.804Z,4.07
2023-04-11T11:54:48.427Z,3.90
2023-04-11T11:56:53.350Z,4.95
2023-04-11T11:58:56.999Z,2.33
2023-04-11T12:01:01.965Z,4.32
2023-04-11T12:03:06.689Z,2.60
2023-04-11T12:05:12.791Z,3.97
2023-04-11T12:07:21.587Z,2.90
2023-04-11T12:09:31.790Z,2.97
2023-04-11T12:11:39.986Z,3.40
2023-04-11T12:13:45.627Z,2.80
2023-04-11T12:15:52.346Z,2.47
2023-04-11T12:17:57.257Z,3.30
2023-04-11T12:20:00.761Z,4.63
2023-04-11T12:22:04.426Z,2.38
2023-04-11T12:24:09.969Z,3.90
2023-04-11T12:26:13.695Z,3.00
2023-04-11T12:28:17.434Z,3.30
2023-04-11T12:30:20.960Z,6.25
2023-04-11T12:32:24.473Z,2.88
2023-04-11T12:34:29.289Z,2.65
2023-04-11T12:36:33.663Z,3.95
2023-04-11T12:38:37.912Z,1.75
2023-04-11T12:40:41.318Z,2.90
2023-04-11T12:42:56.162Z,2.40
2023-04-11T12:45:00.590Z,4.63
2023-04-11T12:47:04.028Z,2.15
2023-04-11T12:49:07.473Z,1.50
2023-04-11T12:51:12.300Z,1.35
2023-04-11T12:53:15.648Z,2.75
2023-04-11T12:55:19.062Z,3.33
2023-04-11T12:57:22.871Z,5.50
2023-04-11T12:59:26.917Z,5.63
2023-04-11T13:01:30.666Z,6.50
2023-04-11T13:03:34.377Z,5.22
2023-04-11T13:05:38.265Z,6.32
2023-04-11T13:07:44.831Z,7.13
2023-04-11T13:09:49.493Z,5.50
2023-04-11T13:11:53.050Z,6.95
2023-04-11T13:13:56.643Z,8.77
2023-04-11T13:16:00.081Z,9.45
2023-04-11T13:18:03.681Z,9.27
2023-04-11T13:20:10.421Z,8.90
2023-04-11T13:22:14.174Z,12.23
2023-04-11T13:24:19.034Z,5.90
2023-04-11T13:26:22.520Z,10.27
2023-04-11T13:28:25.929Z,9.35
2023-04-11T13:30:29.368Z,7.20
2023-04-11T13:32:33.338Z,8.02
2023-04-11T13:34:37.110Z,8.90
2023-04-11T13:36:40.478Z,10.82
2023-04-11T13:38:43.935Z,9.93
2023-04-11T13:40:48.771Z,10.68
2023-04-11T13:42:52.244Z,8.45
2023-04-11T13:44:55.647Z,9.05
2023-04-11T13:46:59.159Z,13.43
2023-04-11T13:49:02.615Z,6.68
2023-04-11T13:51:06.549Z,10.35
2023-04-11T13:53:10.966Z,13.25
2023-04-11T13:55:14.501Z,11.23
2023-04-11T13:57:19.481Z,7.57
2023-04-11T13:59:22.944Z,12.10
2023-04-11T14:01:26.937Z,7.63
2023-04-11T14:03:33.868Z,8.68
2023-04-11T14:05:42.465Z,10.02
2023-04-11T14:07:48.269Z,4.68
2023-04-11T14:09:53.234Z,11.15
2023-04-11T14:12:10.688Z,8.20
2023-04-11T14:14:17.083Z,7.60
2023-04-11T14:16:27.120Z,5.85
2023-04-11T14:18:32.687Z,10.27
2023-04-11T14:20:37.653Z,6.78
2023-04-11T14:22:42.696Z,11.15
2023-04-11T14:24:47.492Z,11.02
2023-04-11T14:27:00.960Z,8.93
2023-04-11T14:29:05.943Z,11.93
2023-04-11T14:31:16.800Z,11.18
2023-04-11T14:33:24.647Z,11.02
2023-04-11T14:35:28.190Z,15.68
2023-04-11T14:37:31.971Z,13.68
2023-04-11T14:39:35.631Z,8.82
2023-04-11T14:41:39.056Z,11.43
2023-04-11T14:43:42.697Z,10.05
2023-04-11T14:45:46.664Z,10.63
2023-04-11T14:47:51.752Z,6.63
2023-04-11T14:49:57.602Z,8.15
2023-04-11T14:52:01.385Z,9.00
2023-04-11T14:54:05.043Z,16.65
2023-04-11T14:56:09.487Z,10.65
2023-04-11T14:58:12.981Z,11.05
2023-04-11T15:00:21.147Z,9.13
2023-04-11T15:02:24.797Z,9.07
2023-04-11T15:04:29.858Z,7.68
2023-04-11T15:06:33.721Z,6.93
2023-04-11T15:08:37.188Z,8.45
2023-04-11T15:10:40.738Z,11.82
2023-04-11T15:12:44.194Z,7.10
2023-04-11T15:14:47.847Z,9.25
2023-04-11T15:16:52.115Z,7.22
2023-04-11T15:18:55.589Z,10.27
2023-04-11T15:21:03.576Z,7.05
2023-04-11T15:23:07.184Z,11.48
2023-04-11T15:25:12.989Z,7.75
2023-04-11T15:27:16.463Z,9.00
2023-04-11T15:29:19.994Z,8.75
2023-04-11T15:31:26.635Z,10.23
2023-04-11T15:33:31.906Z,9.82
2023-04-11T15:35:35.746Z,9.38
2023-04-11T15:37:41.127Z,12.93
2023-04-11T15:39:44.601Z,12.43
2023-04-11T15:41:48.563Z,8.50
2023-04-11T15:43:52.081Z,8.68
2023-04-11T15:45:55.830Z,9.30
2023-04-11T15:47:59.308Z,9.75
2023-04-11T15:50:04.852Z,7.38
2023-04-11T15:52:08.404Z,6.55
2023-04-11T15:54:13.298Z,3.92
2023-04-11T15:56:17.684Z,6.45
2023-04-11T15:58:22.352Z,4.75
2023-04-11T16:00:27.405Z,4.93
2023-04-11T16:02:31.140Z,7.32
2023-04-11T16:04:38.417Z,6.15
2023-04-11T16:06:42.416Z,5.88
2023-04-11T16:08:46.228Z,5.10
2023-04-11T16:10:51.109Z,5.93
2023-04-11T16:12:54.525Z,5.95
2023-04-11T16:14:58.148Z,7.03
2023-04-11T16:17:01.632Z,4.75
2023-04-11T16:19:05.164Z,5.13
2023-04-11T16:21:13.630Z,4.80
2023-04-11T16:23:17.110Z,4.53
2023-04-11T16:25:21.565Z,4.30
2023-04-11T16:27:26.729Z,6.93
2023-04-11T16:29:30.390Z,6.20
2023-04-11T16:31:33.899Z,4.05
2023-04-11T16:33:37.368Z,4.50
2023-04-11T16:35:40.996Z,5.70
2023-04-11T16:37:44.532Z,11.32
2023-04-11T16:39:48.412Z,6.55
2023-04-11T16:41:52.400Z,5.43
2023-04-11T16:43:58.833Z,9.27
2023-04-11T16:46:02.770Z,7.25
2023-04-11T16:48:07.105Z,10.48
2023-04-11T16:50:11.055Z,9.02
2023-04-11T16:52:14.740Z,8.60
2023-04-11T16:54:18.277Z,8.38
2023-04-11T16:56:22.038Z,6.85
2023-04-11T16:58:27.662Z,7.68
2023-04-11T17:00:33.658Z,8.95
2023-04-11T17:02:37.397Z,8.13
2023-04-11T17:04:41.583Z,10.30
2023-04-11T17:06:45.372Z,11.65
2023-04-11T17:08:49.557Z,12.48
2023-04-11T17:10:53.867Z,8.35
2023-04-11T17:12:59.398Z,10.95
2023-04-11T17:15:03.150Z,11.52
2023-04-11T17:17:08.341Z,10.57
2023-04-11T17:19:11.853Z,6.35
2023-04-11T17:21:16.730Z,5.00
2023-04-11T17:23:31.997Z,10.35
2023-04-11T17:25:42.643Z,10.57
2023-04-11T17:27:46.365Z,10.30
2023-04-11T17:29:49.874Z,8.27
2023-04-11T17:31:53.251Z,9.70
2023-04-11T17:33:58.550Z,10.00
2023-04-11T17:36:02.380Z,10.77
2023-04-11T17:38:05.832Z,10.63
2023-04-11T17:40:14.414Z,10.50
2023-04-11T17:42:18.008Z,14.88
2023-04-11T17:44:21.772Z,8.88
2023-04-11T17:46:25.188Z,13.77
2023-04-11T17:48:29.156Z,9.18
2023-04-11T17:50:34.146Z,11.27
2023-04-11T17:52:37.961Z,8.63
2023-04-11T17:54:41.455Z,14.52
2023-04-11T17:56:45.177Z,12.90
2023-04-11T17:58:49.066Z,13.52
2023-04-11T18:00:56.183Z,9.70
2023-04-11T18:03:01.178Z,11.18
2023-04-11T18:05:13.117Z,16.27
2023-04-11T18:07:25.770Z,12.48
2023-04-11T18:09:31.942Z,11.18
2023-04-11T18:11:35.324Z,12.52
2023-04-11T18:13:38.855Z,11.05
2023-04-11T18:15:42.386Z,14.57
2023-04-11T18:17:46.354Z,12.35
2023-04-11T18:19:50.116Z,15.57
2023-04-11T18:21:53.654Z,14.85
2023-04-11T18:23:58.987Z,13.90
2023-04-11T18:26:02.516Z,10.77
2023-04-11T18:28:05.999Z,15.88
2023-04-11T18:30:12.963Z,11.98
2023-04-11T18:32:20.548Z,13.68
2023-04-11T18:34:26.032Z,11.25
2023-04-11T18:36:29.571Z,16.63
2023-04-11T18:38:33.017Z,16.27
2023-04-11T18:40:37.856Z,15.27
2023-04-11T18:42:42.147Z,14.07
2023-04-11T18:44:45.696Z,13.43
2023-04-11T18:46:50.978Z,10.82
2023-04-11T18:48:55.872Z,12.40
2023-04-11T18:51:03.558Z,11.95
2023-04-11T18:53:10.255Z,7.90
2023-04-11T18:55:16.013Z,14.07
2023-04-11T18:57:20.818Z,12.10
2023-04-11T18:59:28.886Z,10.00
2023-04-11T19:01:33.280Z,17.13
2023-04-11T19:03:36.897Z,17.08
2023-04-11T19:05:41.228Z,11.68
2023-04-11T19:07:45.577Z,12.45
2023-04-11T19:09:49.693Z,18.48
2023-04-11T19:11:53.365Z,15.23
2023-04-11T19:14:00.048Z,16.42
2023-04-11T19:16:03.698Z,14.77
2023-04-11T19:18:07.640Z,9.57
2023-04-11T19:20:13.622Z,14.88
2023-04-11T19:22:17.244Z,13.50
2023-04-11T19:24:20.798Z,15.20
2023-04-11T19:26:28.471Z,14.07
2023-04-11T19:28:32.040Z,12.40
2023-04-11T19:30:37.087Z,14.45
2023-04-11T19:32:43.393Z,10.88
2023-04-11T19:34:47.841Z,12.38
2023-04-11T19:36:51.997Z,17.13
2023-04-11T19:38:55.511Z,17.85
2023-04-11T19:40:59.019Z,15.23
2023-04-11T19:43:03.057Z,15.52
2023-04-11T19:45:08.007Z,19.30
2023-04-11T19:47:12.822Z,18.90
2023-04-11T19:49:16.677Z,17.05
2023-04-11T19:51:20.085Z,18.45
2023-04-11T19:53:23.694Z,19.45
2023-04-11T19:55:27.414Z,13.60
2023-04-11T19:57:30.972Z,17.63
2023-04-11T19:59:34.362Z,20.05
2023-04-11T20:01:37.926Z,18.55
2023-04-11T20:03:43.694Z,15.50
2023-04-11T20:05:48.708Z,18.83
2023-04-11T20:07:53.238Z,15.95
2023-04-11T20:09:56.630Z,24.52
2023-04-11T20:12:00.282Z,20.13
2023-04-11T20:14:03.768Z,15.23
2023-04-11T20:16:09.531Z,15.40
2023-04-11T20:18:13.394Z,20.65
2023-04-11T20:20:19.686Z,19.95
2023-04-11T20:22:23.390Z,16.40
2023-04-11T20:24:26.846Z,20.98
2023-04-11T20:26:30.531Z,14.90
2023-04-11T20:28:34.031Z,18.73
2023-04-11T20:30:39.577Z,17.40
2023-04-11T20:32:43.262Z,14.13
2023-04-11T20:34:46.793Z,13.85
2023-04-11T20:36:51.828Z,18.55
2023-04-11T20:38:55.674Z,14.43
2023-04-11T20:41:03.717Z,21.83
2023-04-11T20:43:07.308Z,17.55
2023-04-11T20:45:12.393Z,14.05
2023-04-11T20:47:15.782Z,19.20
2023-04-11T20:49:19.228Z,14.18
2023-04-11T20:51:22.653Z,18.77
2023-04-11T20:53:27.937Z,16.75
2023-04-11T20:55:33.410Z,13.60
2023-04-11T20:57:36.972Z,15.43
2023-04-11T20:59:40.564Z,19.60
2023-04-11T21:01:44.181Z,13.82
2023-04-11T21:03:48.028Z,14.85
2023-04-11T21:05:51.775Z,19.13
2023-04-11T21:07:55.467Z,16.02
2023-04-11T21:10:01.740Z,17.40
2023-04-11T21:12:05.483Z,17.65
2023-04-11T21:14:08.931Z,16.00
2023-04-11T21:16:12.381Z,20.30
2023-04-11T21:18:16.061Z,16.42
2023-04-11T21:20:20.283Z,13.20
2023-04-11T21:22:23.829Z,15.82
2023-04-11T21:24:27.298Z,18.92
2023-04-11T21:26:32.106Z,15.95
2023-04-11T21:28:35.521Z,20.63
2023-04-11T21:30:39.546Z,22.38
2023-04-11T21:32:43.247Z,16.50
2023-04-11T21:34:46.763Z,16.48
2023-04-11T21:36:51.440Z,16.00
2023-04-11T21:38:54.970Z,14.20
2023-04-11T21:40:59.008Z,13.77
2023-04-11T21:43:04.475Z,18.75
2023-04-11T21:45:09.532Z,18.30
2023-04-11T21:47:13.039Z,17.67
2023-04-11T21:49:16.789Z,19.95
2023-04-11T21:51:20.291Z,17.35
2023-04-11T21:53:23.697Z,21.08
2023-04-11T21:55:27.110Z,15.80
2023-04-11T21:57:33.462Z,11.95
2023-04-11T21:59:39.079Z,18.20
2023-04-11T22:01:42.788Z,15.63
2023-04-11T22:03:50.412Z,16.65
2023-04-11T22:05:54.091Z,13.93
2023-04-11T22:08:11.413Z,15.35
2023-04-11T22:10:14.950Z,17.20
2023-04-11T22:12:18.691Z,18.17
2023-04-11T22:14:22.185Z,20.27
2023-04-11T22:16:31.024Z,17.25
2023-04-11T22:18:38.302Z,22.67
2023-04-11T22:20:43.875Z,17.45
2023-04-11T22:22:48.055Z,21.55
2023-04-11T22:24:52.230Z,17.90
2023-04-11T22:26:58.379Z,16.42
2023-04-11T22:29:03.845Z,13.68
2023-04-11T22:31:07.792Z,17.52
2023-04-11T22:33:14.067Z,15.93
2023-04-11T22:35:17.800Z,19.17
2023-04-11T22:37:21.780Z,19.73
2023-04-11T22:39:25.571Z,16.67
2023-04-11T22:41:30.551Z,25.70
2023-04-11T22:43:34.419Z,19.17
2023-04-11T22:45:38.063Z,13.75
2023-04-11T22:47:45.712Z,19.55
2023-04-11T22:49:50.652Z,21.33
2023-04-11T22:51:59.267Z,17.58
2023-04-11T22:54:02.902Z,24.73
2023-04-11T22:56:07.106Z,16.02
2023-04-11T22:58:10.596Z,20.35
2023-04-11T23:00:17.628Z,22.58
2023-04-11T23:02:21.077Z,16.95
2023-04-11T23:04:24.594Z,22.77
2023-04-11T23:06:29.374Z,19.27
2023-04-11T23:08:32.811Z,23.10
2023-04-11T23:10:36.330Z,18.33
2023-04-11T23:12:39.791Z,23.02
2023-04-11T23:14:43.210Z,18.38
2023-04-11T23:16:46.786Z,23.60
2023-04-11T23:18:50.326Z,28.08
2023-04-11T23:20:53.866Z,25.55
2023-04-11T23:22:59.204Z,24.10
2023-04-11T23:25:02.952Z,26.30
2023-04-11T23:27:06.726Z,23.85
2023-04-11T23:29:10.190Z,27.95
2023-04-11T23:31:13.757Z,23.73
2023-04-11T23:33:17.664Z,19.55
2023-04-11T23:35:21.275Z,20.00
2023-04-11T23:37:25.285Z,26.27
2023-04-11T23:39:30.325Z,21.20
2023-04-11T23:41:33.809Z,32.45
2023-04-11T23:43:37.240Z,24.60
2023-04-11T23:45:40.796Z,19.52
2023-04-11T23:47:44.389Z,20.77
2023-04-11T23:49:47.859Z,26.80
2023-04-11T23:51:51.349Z,22.83
2023-04-11T23:53:54.798Z,21.05
2023-04-11T23:55:59.685Z,21.42
2023-04-11T23:58:03.730Z,20.85
